createdAt,value
2023-02-22T00:02:11.173Z,90.36
2023-02-22T00:04:39.848Z,91.24
2023-02-22T00:07:07.571Z,90.02
2023-02-22T00:09:34.572Z,89.51
2023-02-22T00:12:01.404Z,91.05
2023-02-22T00:14:28.590Z,91.08
2023-02-22T00:16:59.746Z,91.46
2023-02-22T00:19:30.220Z,90.57
2023-02-22T00:21:58.193Z,89.97
2023-02-22T00:24:25.120Z,89.34
2023-02-22T00:26:56.798Z,89.75
2023-02-22T00:29:25.058Z,90.08
2023-02-22T00:31:52.457Z,91.53
2023-02-22T00:34:19.401Z,91.59
2023-02-22T00:36:48.588Z,91.74
2023-02-22T00:39:16.061Z,90.95
2023-02-22T00:41:43.081Z,91.56
2023-02-22T00:44:09.930Z,91.24
2023-02-22T00:46:36.665Z,90.21
2023-02-22T00:49:03.785Z,90.41
2023-02-22T00:51:30.864Z,92.74
2023-02-22T00:53:57.617Z,92.15
2023-02-22T00:56:24.651Z,92.99
2023-02-22T00:58:52.733Z,94.22
2023-02-22T01:01:19.697Z,93.61
2023-02-22T01:03:46.512Z,92.74
2023-02-22T01:06:13.272Z,92.22
2023-02-22T01:08:45.536Z,92.02
2023-02-22T01:11:13.835Z,92.85
2023-02-22T01:13:40.716Z,94.91
2023-02-22T01:16:08.437Z,94.02
2023-02-22T01:18:36.826Z,94.67
2023-02-22T01:21:04.919Z,94.13
2023-02-22T01:23:32.046Z,93.29
2023-02-22T01:25:58.935Z,92.53
2023-02-22T01:28:25.717Z,91.85
2023-02-22T01:30:52.757Z,91.14
2023-02-22T01:33:19.575Z,91.64
2023-02-22T01:35:46.989Z,91.57
2023-02-22T01:38:14.568Z,90.90
2023-02-22T01:40:47.137Z,90.95
2023-02-22T01:43:27.054Z,90.36
2023-02-22T01:46:23.562Z,90.75
2023-02-22T01:49:06.403Z,90.32
2023-02-22T01:51:40.892Z,91.19
2023-02-22T01:54:17.329Z,91.87
2023-02-22T01:57:07.060Z,93.76
2023-02-22T01:59:38.296Z,93.62
2023-02-22T02:02:05.296Z,94.31
2023-02-22T02:04:33.873Z,94.63
2023-02-22T02:07:06.219Z,93.89
2023-02-22T02:09:39.922Z,94.65
2023-02-22T02:12:10.430Z,94.50
2023-02-22T02:14:40.494Z,94.06
2023-02-22T02:17:13.823Z,93.35
2023-02-22T02:20:00.280Z,94.22
2023-02-22T02:22:57.781Z,93.88
2023-02-22T02:26:15.271Z,93.88
2023-02-22T02:28:59.961Z,94.14
2023-02-22T02:32:08.361Z,93.84
2023-02-22T02:35:11.524Z,92.78
2023-02-22T02:37:45.174Z,92.19
2023-02-22T02:40:50.376Z,92.07
2023-02-22T02:43:47.942Z,91.95
2023-02-22T02:46:43.474Z,91.43
2023-02-22T02:49:20.739Z,91.91
2023-02-22T02:51:54.012Z,92.25
2023-02-22T02:54:22.934Z,93.25
2023-02-22T02:56:51.380Z,93.40
2023-02-22T02:59:26.317Z,93.12
2023-02-22T03:02:30.520Z,92.97
2023-02-22T03:05:34.681Z,93.59
2023-02-22T03:08:35.838Z,93.86
2023-02-22T03:11:16.579Z,94.10
2023-02-22T03:14:33.804Z,94.43
2023-02-22T03:17:00.653Z,94.36
2023-02-22T03:19:43.508Z,93.67
2023-02-22T03:22:15.885Z,93.13
2023-02-22T03:25:09.467Z,92.74
2023-02-22T03:27:53.414Z,92.62
2023-02-22T03:30:28.100Z,92.64
2023-02-22T03:33:09.128Z,92.66
2023-02-22T03:35:41.478Z,92.61
2023-02-22T03:38:12.128Z,93.13
2023-02-22T03:40:48.898Z,94.04
2023-02-22T03:43:51.078Z,94.02
2023-02-22T03:46:19.652Z,92.82
2023-02-22T03:49:16.786Z,94.15
2023-02-22T03:51:43.809Z,94.21
2023-02-22T03:54:16.605Z,94.75
2023-02-22T03:57:26.559Z,95.30
2023-02-22T03:59:53.406Z,95.66
2023-02-22T04:02:20.197Z,94.85
2023-02-22T04:04:47.934Z,94.69
2023-02-22T04:07:15.116Z,94.51
2023-02-22T04:09:42.069Z,95.85
2023-02-22T04:12:08.957Z,95.86
2023-02-22T04:14:36.113Z,95.41
2023-02-22T04:17:02.844Z,95.13
2023-02-22T04:19:29.599Z,95.21
2023-02-22T04:21:56.333Z,98.48
2023-02-22T04:24:23.085Z,97.87
2023-02-22T04:26:50.370Z,96.69
2023-02-22T04:29:17.132Z,96.38
2023-02-22T04:31:43.889Z,96.79
2023-02-22T04:34:10.731Z,95.85
2023-02-22T04:36:37.461Z,94.66
2023-02-22T04:39:05.485Z,94.47
2023-02-22T04:41:32.322Z,95.15
2023-02-22T04:44:00.724Z,94.93
2023-02-22T04:46:27.679Z,96.08
2023-02-22T04:48:54.945Z,96.80
2023-02-22T04:51:21.739Z,96.51
2023-02-22T04:53:48.512Z,96.82
2023-02-22T04:56:19.057Z,96.77
2023-02-22T04:58:46.060Z,96.39
2023-02-22T05:01:12.873Z,95.35
2023-02-22T05:03:39.596Z,95.58
2023-02-22T05:06:07.014Z,96.03
2023-02-22T05:08:33.772Z,96.08
2023-02-22T05:11:00.585Z,97.00
2023-02-22T05:13:27.338Z,96.84
2023-02-22T05:15:54.560Z,96.88
2023-02-22T05:18:21.338Z,97.85
2023-02-22T05:20:48.116Z,97.44
2023-02-22T05:23:15.563Z,98.07
2023-02-22T05:25:42.500Z,98.32
2023-02-22T05:28:14.091Z,98.27
2023-02-22T05:30:41.871Z,98.21
2023-02-22T05:33:09.760Z,98.17
2023-02-22T05:35:37.272Z,97.94
2023-02-22T05:38:05.829Z,97.01
2023-02-22T05:40:33.483Z,98.60
2023-02-22T05:43:02.284Z,97.95
2023-02-22T05:45:29.313Z,97.51
2023-02-22T05:47:56.448Z,97.30
2023-02-22T05:50:24.730Z,96.62
2023-02-22T05:52:52.175Z,97.28
2023-02-22T05:55:22.828Z,97.40
2023-02-22T05:57:50.181Z,97.25
2023-02-22T06:00:25.996Z,97.28
2023-02-22T06:03:02.830Z,97.22
2023-02-22T06:05:30.450Z,97.30
2023-02-22T06:07:58.638Z,97.25
2023-02-22T06:10:26.185Z,97.31
2023-02-22T06:12:53.895Z,97.73
2023-02-22T06:15:22.654Z,97.35
2023-02-22T06:17:49.638Z,96.76
2023-02-22T06:20:21.484Z,96.78
2023-02-22T06:22:50.082Z,96.91
2023-02-22T06:25:20.999Z,96.05
2023-02-22T06:27:48.228Z,95.81
2023-02-22T06:30:18.261Z,95.54
2023-02-22T06:32:45.041Z,96.08
2023-02-22T06:35:11.997Z,96.95
2023-02-22T06:37:40.191Z,97.30
2023-02-22T06:40:07.793Z,97.07
2023-02-22T06:42:34.717Z,96.43
2023-02-22T06:45:01.576Z,97.32
2023-02-22T06:47:28.791Z,97.26
2023-02-22T06:49:57.460Z,97.37
2023-02-22T06:52:25.073Z,97.51
2023-02-22T06:54:52.211Z,97.54
2023-02-22T06:57:19.200Z,96.78
2023-02-22T06:59:45.984Z,96.83
2023-02-22T07:02:13.711Z,97.40
2023-02-22T07:04:43.302Z,96.90
2023-02-22T07:07:11.221Z,96.93
2023-02-22T07:09:37.943Z,96.82
2023-02-22T07:12:05.013Z,96.29
2023-02-22T07:14:31.731Z,96.66
2023-02-22T07:16:58.458Z,96.92
2023-02-22T07:19:25.221Z,98.04
2023-02-22T07:21:59.317Z,97.58
2023-02-22T07:24:28.629Z,98.06
2023-02-22T07:26:55.522Z,98.98
2023-02-22T07:29:22.645Z,98.63
2023-02-22T07:31:49.662Z,98.94
2023-02-22T07:34:16.512Z,98.74
2023-02-22T07:36:43.478Z,97.88
2023-02-22T07:39:11.665Z,98.31
2023-02-22T07:41:38.459Z,98.28
2023-02-22T07:44:05.302Z,98.45
2023-02-22T07:46:32.005Z,98.03
2023-02-22T07:48:58.746Z,97.16
2023-02-22T07:51:25.627Z,96.49
2023-02-22T07:53:52.484Z,96.29
2023-02-22T07:56:19.242Z,96.43
2023-02-22T07:58:46.018Z,96.18
2023-02-22T08:01:12.777Z,96.08
2023-02-22T08:03:39.729Z,96.16
2023-02-22T08:06:08.085Z,96.13
2023-02-22T08:08:35.283Z,96.13
2023-02-22T08:11:02.180Z,97.00
2023-02-22T08:13:29.265Z,96.66
2023-02-22T08:15:56.278Z,96.77
2023-02-22T08:18:24.858Z,96.55
2023-02-22T08:20:53.164Z,96.91
2023-02-22T08:23:23.128Z,96.90
2023-02-22T08:25:49.886Z,96.62
2023-02-22T08:28:21.662Z,96.22
2023-02-22T08:30:48.543Z,96.15
2023-02-22T08:33:19.816Z,96.10
2023-02-22T08:35:52.016Z,96.14
2023-02-22T08:38:28.541Z,95.20
2023-02-22T08:40:55.506Z,96.21
2023-02-22T08:43:23.392Z,95.25
2023-02-22T08:45:50.471Z,94.58
2023-02-22T08:48:18.380Z,95.02
2023-02-22T08:50:45.812Z,95.45
2023-02-22T08:53:14.657Z,95.55
2023-02-22T08:55:42.366Z,95.97
2023-02-22T08:58:09.855Z,95.94
2023-02-22T09:00:39.101Z,95.95
2023-02-22T09:03:10.725Z,96.12
2023-02-22T09:05:37.842Z,96.00
2023-02-22T09:08:05.810Z,95.70
2023-02-22T09:10:35.902Z,96.08
2023-02-22T09:13:04.779Z,95.32
2023-02-22T09:15:32.968Z,95.63
2023-02-22T09:18:00.065Z,96.04
2023-02-22T09:20:28.362Z,95.13
2023-02-22T09:22:55.615Z,95.16
2023-02-22T09:25:23.630Z,95.12
2023-02-22T09:27:53.459Z,95.22
2023-02-22T09:30:35.604Z,95.76
2023-02-22T09:33:14.914Z,95.42
2023-02-22T09:35:46.412Z,94.24
2023-02-22T09:38:20.378Z,93.43
2023-02-22T09:40:54.799Z,92.41
2023-02-22T09:43:36.392Z,91.53
2023-02-22T09:46:45.753Z,91.00
2023-02-22T09:49:32.649Z,91.60
2023-02-22T09:52:07.629Z,91.70
2023-02-22T09:54:41.273Z,90.45
2023-02-22T09:57:16.863Z,91.22
2023-02-22T10:00:13.839Z,90.52
2023-02-22T10:02:54.744Z,89.53
2023-02-22T10:05:28.042Z,90.37
2023-02-22T10:08:01.221Z,89.68
2023-02-22T10:10:33.713Z,88.88
2023-02-22T10:13:21.374Z,88.11
2023-02-22T10:16:17.315Z,87.18
2023-02-22T10:19:25.921Z,87.88
2023-02-22T10:22:26.690Z,85.82
2023-02-22T10:25:05.058Z,84.60
2023-02-22T10:27:51.336Z,84.01
2023-02-22T10:30:25.991Z,82.84
2023-02-22T10:33:17.802Z,79.01
2023-02-22T10:35:47.067Z,77.92
2023-02-22T10:38:26.776Z,76.34
2023-02-22T10:41:00.124Z,75.21
2023-02-22T10:43:27.543Z,74.67
2023-02-22T10:46:01.525Z,72.29
2023-02-22T10:48:31.617Z,69.96
2023-02-22T10:51:05.036Z,69.48
2023-02-22T10:53:34.407Z,68.39
2023-02-22T10:56:09.729Z,66.94
2023-02-22T10:59:02.422Z,65.73
2023-02-22T11:01:38.743Z,64.19
2023-02-22T11:04:22.533Z,63.86
2023-02-22T11:07:08.596Z,63.16
2023-02-22T11:09:52.177Z,62.92
2023-02-22T11:12:34.386Z,62.04
2023-02-22T11:15:19.746Z,61.66
2023-02-22T11:17:48.723Z,61.87
2023-02-22T11:20:27.532Z,61.01
2023-02-22T11:22:58.305Z,60.89
2023-02-22T11:25:31.828Z,59.49
2023-02-22T11:28:15.504Z,60.27
2023-02-22T11:30:44.668Z,60.43
2023-02-22T11:33:17.204Z,59.57
2023-02-22T11:36:02.289Z,59.66
2023-02-22T11:38:37.785Z,59.49
2023-02-22T11:41:28.041Z,59.23
2023-02-22T11:43:54.819Z,59.68
2023-02-22T11:46:35.138Z,59.36
2023-02-22T11:49:07.262Z,58.57
2023-02-22T11:52:07.514Z,58.12
2023-02-22T11:55:09.925Z,57.84
2023-02-22T11:58:01.641Z,57.71
2023-02-22T12:00:45.522Z,57.70
2023-02-22T12:03:50.714Z,56.49
2023-02-22T12:06:24.856Z,57.62
2023-02-22T12:09:25.108Z,56.91
2023-02-22T12:12:12.755Z,57.45
2023-02-22T12:14:58.704Z,57.21
2023-02-22T12:18:06.015Z,57.02
2023-02-22T12:20:41.186Z,57.18
2023-02-22T12:23:30.269Z,56.39
2023-02-22T12:26:14.714Z,57.37
2023-02-22T12:28:48.636Z,55.48
2023-02-22T12:31:39.017Z,56.04
2023-02-22T12:34:20.128Z,56.66
2023-02-22T12:36:53.389Z,55.07
2023-02-22T12:39:53.765Z,54.79
2023-02-22T12:42:56.700Z,55.41
2023-02-22T12:45:38.557Z,54.48
2023-02-22T12:48:48.895Z,53.63
2023-02-22T12:51:25.985Z,53.10
2023-02-22T12:54:02.271Z,53.20
2023-02-22T12:56:39.936Z,52.51
2023-02-22T12:59:19.650Z,53.23
2023-02-22T13:01:57.290Z,51.84
2023-02-22T13:04:24.443Z,52.38
2023-02-22T13:07:31.917Z,51.01
2023-02-22T13:11:09.275Z,52.32
2023-02-22T13:13:57.653Z,52.15
2023-02-22T13:17:20.911Z,51.18
2023-02-22T13:20:36.862Z,51.22
2023-02-22T13:23:22.501Z,51.13
2023-02-22T13:26:03.812Z,51.25
2023-02-22T13:28:32.838Z,50.50
2023-02-22T13:31:29.142Z,50.02
2023-02-22T13:34:26.268Z,50.24
2023-02-22T13:37:23.316Z,49.63
2023-02-22T13:40:06.710Z,49.02
2023-02-22T13:43:06.628Z,48.55
2023-02-22T13:46:00.964Z,48.89
2023-02-22T13:49:25.588Z,49.02
2023-02-22T13:52:02.127Z,50.02
2023-02-22T13:54:54.607Z,48.89
2023-02-22T13:57:24.733Z,49.67
2023-02-22T14:00:16.609Z,49.42
2023-02-22T14:03:13.374Z,49.45
2023-02-22T14:05:41.387Z,49.25
2023-02-22T14:08:14.131Z,49.76
2023-02-22T14:10:43.776Z,49.15
2023-02-22T14:13:12.106Z,49.14
2023-02-22T14:16:00.283Z,49.17
2023-02-22T14:18:38.117Z,49.55
2023-02-22T14:21:15.952Z,49.91
2023-02-22T14:23:48.066Z,49.86
2023-02-22T14:26:32.336Z,50.03
2023-02-22T14:29:08.239Z,49.79
2023-02-22T14:32:00.459Z,50.03
2023-02-22T14:34:58.188Z,49.93
2023-02-22T14:37:29.344Z,49.95
2023-02-22T14:40:15.666Z,49.54
2023-02-22T14:42:52.021Z,50.03
2023-02-22T14:45:30.202Z,50.05
2023-02-22T14:48:25.233Z,50.32
2023-02-22T14:51:11.922Z,50.90
2023-02-22T14:53:53.270Z,51.00
2023-02-22T14:56:25.811Z,51.18
2023-02-22T14:58:59.225Z,51.57
2023-02-22T15:01:55.377Z,51.88
2023-02-22T15:04:31.140Z,51.89
2023-02-22T15:07:00.122Z,52.13
2023-02-22T15:09:34.735Z,52.43
2023-02-22T15:12:05.213Z,52.78
2023-02-22T15:14:39.145Z,53.21
2023-02-22T15:17:25.088Z,53.21
2023-02-22T15:19:52.864Z,53.11
2023-02-22T15:22:24.554Z,53.20
2023-02-22T15:25:05.638Z,52.86
2023-02-22T15:27:36.999Z,52.81
2023-02-22T15:30:23.434Z,53.28
2023-02-22T15:33:04.967Z,53.30
2023-02-22T15:35:33.700Z,53.94
2023-02-22T15:38:12.777Z,53.99
2023-02-22T15:40:43.220Z,53.87
2023-02-22T15:43:24.331Z,54.05
2023-02-22T15:45:52.696Z,53.64
2023-02-22T15:48:19.704Z,53.73
2023-02-22T15:51:09.420Z,54.05
2023-02-22T15:53:46.046Z,54.00
2023-02-22T15:56:31.600Z,54.27
2023-02-22T15:59:33.414Z,54.91
2023-02-22T16:02:01.752Z,54.72
2023-02-22T16:08:55.524Z,56.70
2023-02-22T16:11:39.881Z,56.90
2023-02-22T16:14:25.879Z,57.42
2023-02-22T16:17:31.587Z,57.71
2023-02-22T16:20:19.305Z,58.16
2023-02-22T16:22:51.052Z,58.53
2023-02-22T16:25:24.923Z,59.21
2023-02-22T16:28:03.130Z,59.62
2023-02-22T16:30:32.941Z,59.80
2023-02-22T16:33:00.968Z,60.34
2023-02-22T16:35:29.521Z,60.57
2023-02-22T16:38:03.119Z,61.14
2023-02-22T16:40:39.919Z,62.21
2023-02-22T16:43:14.990Z,62.22
2023-02-22T16:45:42.661Z,63.02
2023-02-22T16:48:27.612Z,63.36
2023-02-22T16:50:57.237Z,64.05
2023-02-22T16:53:26.788Z,65.70
2023-02-22T16:56:04.172Z,65.77
2023-02-22T16:58:35.093Z,65.99
2023-02-22T17:01:01.995Z,66.93
2023-02-22T17:03:29.607Z,67.60
2023-02-22T17:05:56.747Z,67.85
2023-02-22T17:08:24.133Z,68.51
2023-02-22T17:10:56.785Z,69.29
2023-02-22T17:13:27.240Z,69.12
2023-02-22T17:15:55.150Z,70.32
2023-02-22T17:18:24.816Z,71.35
2023-02-22T17:20:53.342Z,71.35
2023-02-22T17:23:21.370Z,72.27
2023-02-22T17:26:00.701Z,73.46
2023-02-22T17:28:27.627Z,74.26
2023-02-22T17:31:00.617Z,74.62
2023-02-22T17:33:31.433Z,75.41
2023-02-22T17:35:59.596Z,76.14
2023-02-22T17:38:29.114Z,76.40
2023-02-22T17:40:58.987Z,76.73
2023-02-22T17:43:28.045Z,76.16
2023-02-22T17:45:56.041Z,77.30
2023-02-22T17:48:24.367Z,77.12
2023-02-22T17:50:52.390Z,78.02
2023-02-22T17:53:22.881Z,78.39
2023-02-22T17:55:49.992Z,78.15
2023-02-22T17:58:17.872Z,78.45
2023-02-22T18:00:49.034Z,79.03
2023-02-22T18:03:25.815Z,79.30
2023-02-22T18:05:57.719Z,79.26
2023-02-22T18:08:26.381Z,80.40
2023-02-22T18:10:56.545Z,81.70
2023-02-22T18:13:26.652Z,81.13
2023-02-22T18:15:53.634Z,81.51
2023-02-22T18:18:22.216Z,83.37
2023-02-22T18:20:51.575Z,82.79
2023-02-22T18:23:22.456Z,82.67
2023-02-22T18:26:09.000Z,82.63
2023-02-22T18:28:36.977Z,83.75
2023-02-22T18:31:16.575Z,84.19
2023-02-22T18:33:51.059Z,83.88
2023-02-22T18:36:25.656Z,83.49
2023-02-22T18:38:54.813Z,84.00
2023-02-22T18:41:26.856Z,83.48
2023-02-22T18:44:00.520Z,84.68
2023-02-22T18:46:30.073Z,84.26
2023-02-22T18:48:57.165Z,85.25
2023-02-22T18:51:25.816Z,84.17
2023-02-22T18:53:57.070Z,85.20
2023-02-22T18:56:29.644Z,85.86
2023-02-22T18:59:00.534Z,85.45
2023-02-22T19:01:28.118Z,84.54
2023-02-22T19:03:55.755Z,84.83
2023-02-22T19:06:22.703Z,84.40
2023-02-22T19:08:50.824Z,85.33
2023-02-22T19:11:22.157Z,85.63
2023-02-22T19:13:52.708Z,85.55
2023-02-22T19:16:22.579Z,85.91
2023-02-22T19:18:52.495Z,85.33
2023-02-22T19:21:20.828Z,85.04
2023-02-22T19:23:48.895Z,85.07
2023-02-22T19:26:24.638Z,85.24
2023-02-22T19:28:54.344Z,84.12
2023-02-22T19:31:31.535Z,84.60
2023-02-22T19:34:10.851Z,84.91
2023-02-22T19:36:40.181Z,84.61
2023-02-22T19:39:07.776Z,83.93
2023-02-22T19:41:34.631Z,85.05
2023-02-22T19:44:02.052Z,85.27
2023-02-22T19:46:28.907Z,83.87
2023-02-22T19:48:55.979Z,84.70
2023-02-22T19:51:27.878Z,83.69
2023-02-22T19:53:59.248Z,84.56
2023-02-22T19:56:31.133Z,84.16
2023-02-22T19:59:19.177Z,84.04
2023-02-22T20:01:45.886Z,83.32
2023-02-22T20:04:36.445Z,86.16
2023-02-22T20:07:03.939Z,84.68
2023-02-22T20:09:36.520Z,85.70
2023-02-22T20:12:05.345Z,87.07
2023-02-22T20:14:33.671Z,86.76
2023-02-22T20:17:00.598Z,87.98
2023-02-22T20:19:28.586Z,89.02
2023-02-22T20:21:56.498Z,89.00
2023-02-22T20:24:24.595Z,88.47
2023-02-22T20:26:55.806Z,89.89
2023-02-22T20:29:29.534Z,90.21
2023-02-22T20:32:01.283Z,89.47
2023-02-22T20:34:32.608Z,89.10
2023-02-22T20:37:01.064Z,89.46
2023-02-22T20:39:28.055Z,89.73
2023-02-22T20:41:55.108Z,90.26
2023-02-22T20:44:22.017Z,90.29
2023-02-22T20:46:49.259Z,89.67
2023-02-22T20:49:19.868Z,88.47
2023-02-22T20:51:48.226Z,89.21
2023-02-22T20:54:16.924Z,89.22
2023-02-22T20:56:45.851Z,87.84
2023-02-22T20:59:16.755Z,87.11
2023-02-22T21:01:43.958Z,87.12
2023-02-22T21:04:11.918Z,86.93
2023-02-22T21:06:40.469Z,87.07
2023-02-22T21:09:11.983Z,86.59
2023-02-22T21:11:40.171Z,86.70
2023-02-22T21:14:07.322Z,87.06
2023-02-22T21:16:36.949Z,86.32
2023-02-22T21:19:07.238Z,88.43
2023-02-22T21:21:35.262Z,87.89
2023-02-22T21:24:02.310Z,88.63
2023-02-22T21:26:32.712Z,88.12
2023-02-22T21:29:05.924Z,87.42
2023-02-22T21:31:34.447Z,87.74
2023-02-22T21:34:02.163Z,88.60
2023-02-22T21:36:29.693Z,88.08
2023-02-22T21:39:00.050Z,87.24
2023-02-22T21:41:31.282Z,88.45
2023-02-22T21:43:59.669Z,89.49
2023-02-22T21:46:29.414Z,88.80
2023-02-22T21:48:58.965Z,90.44
2023-02-22T21:51:31.625Z,90.54
2023-02-22T21:54:01.188Z,90.28
2023-02-22T21:56:31.543Z,91.38
2023-02-22T21:59:14.757Z,92.19
2023-02-22T22:01:50.138Z,91.63
2023-02-22T22:04:29.620Z,92.01
2023-02-22T22:06:59.327Z,92.99
2023-02-22T22:09:32.869Z,93.64
2023-02-22T22:12:04.922Z,94.06
2023-02-22T22:14:33.373Z,93.80
2023-02-22T22:17:01.616Z,94.01
2023-02-22T22:19:30.634Z,93.64
2023-02-22T22:21:58.478Z,93.02
2023-02-22T22:24:28.821Z,92.10
2023-02-22T22:26:56.267Z,91.66
2023-02-22T22:29:28.581Z,91.07
2023-02-22T22:31:56.105Z,91.09
2023-02-22T22:34:29.497Z,91.88
2023-02-22T22:36:59.363Z,92.36
2023-02-22T22:39:27.185Z,92.27
2023-02-22T22:41:54.185Z,92.58
2023-02-22T22:44:24.188Z,94.31
2023-02-22T22:46:54.865Z,94.20
2023-02-22T22:49:24.115Z,93.46
2023-02-22T22:51:51.364Z,92.56
2023-02-22T22:54:18.411Z,92.98
2023-02-22T22:56:45.302Z,92.84
2023-02-22T22:59:13.535Z,93.05
2023-02-22T23:01:44.827Z,94.09
2023-02-22T23:04:18.782Z,93.77
2023-02-22T23:06:52.250Z,94.44
2023-02-22T23:09:29.650Z,94.86
2023-02-22T23:12:09.147Z,94.72
2023-02-22T23:14:39.746Z,94.16
2023-02-22T23:17:15.315Z,93.39
2023-02-22T23:19:47.386Z,92.57
2023-02-22T23:22:14.661Z,93.53
2023-02-22T23:24:41.739Z,94.36
2023-02-22T23:27:10.895Z,93.50
2023-02-22T23:29:40.294Z,93.39
2023-02-22T23:32:07.943Z,92.62
2023-02-22T23:34:36.664Z,92.03
2023-02-22T23:37:03.679Z,92.58
2023-02-22T23:39:30.492Z,93.74
2023-02-22T23:41:59.618Z,94.63
2023-02-22T23:44:27.612Z,95.76
2023-02-22T23:46:55.820Z,95.81
2023-02-22T23:49:27.045Z,97.87
2023-02-22T23:51:54.014Z,96.84
2023-02-22T23:54:24.579Z,96.13
2023-02-22T23:56:57.750Z,95.45
2023-02-22T23:59:26.805Z,96.37
